createdAt,value
2018-01-17T00:01:30.118Z,5.18
2018-01-17T00:03:58.225Z,10.45
2018-01-17T00:06:25.824Z,5.65
2018-01-17T00:08:54.189Z,6.40
2018-01-17T00:11:21.784Z,9.57
2018-01-17T00:13:49.354Z,6.25
2018-01-17T00:16:16.905Z,5.72
2018-01-17T00:18:44.496Z,8.18
2018-01-17T00:21:12.059Z,5.05
2018-01-17T00:23:39.626Z,5.40
2018-01-17T00:26:08.830Z,4.35
2018-01-17T00:28:36.375Z,3.60
2018-01-17T00:31:04.029Z,5.55
2018-01-17T00:33:31.597Z,2.50
2018-01-17T00:35:59.207Z,4.45
2018-01-17T00:38:26.781Z,2.90
2018-01-17T00:40:55.128Z,5.93
2018-01-17T00:43:22.693Z,6.37
2018-01-17T00:45:50.271Z,3.20
2018-01-17T00:48:18.626Z,3.17
2018-01-17T00:50:46.169Z,3.37
2018-01-17T00:53:13.725Z,1.52
2018-01-17T00:55:41.285Z,1.90
2018-01-17T00:58:08.945Z,1.08
2018-01-17T01:00:36.565Z,2.20
2018-01-17T01:03:04.909Z,1.42
2018-01-17T01:05:32.428Z,3.30
2018-01-17T01:07:59.978Z,2.35
2018-01-17T01:10:28.303Z,3.25
2018-01-17T01:12:55.882Z,3.10
2018-01-17T01:15:23.436Z,2.97
2018-01-17T01:17:51.017Z,1.35
2018-01-17T01:20:19.344Z,1.70
2018-01-17T01:22:46.994Z,4.65
2018-01-17T01:25:14.580Z,2.60
2018-01-17T01:27:42.122Z,2.22
2018-01-17T01:30:09.703Z,2.95
2018-01-17T01:32:38.068Z,3.08
2018-01-17T01:35:05.630Z,1.80
2018-01-17T01:37:33.201Z,1.75
2018-01-17T01:40:00.764Z,2.92
2018-01-17T01:42:28.321Z,3.67
2018-01-17T01:44:55.885Z,2.45
2018-01-17T01:47:23.451Z,1.67
2018-01-17T01:49:51.029Z,2.15
2018-01-17T01:52:18.669Z,1.92
2018-01-17T01:54:46.275Z,2.65
2018-01-17T01:57:13.829Z,2.20
2018-01-17T01:59:41.381Z,2.33
2018-01-17T02:02:08.938Z,3.03
2018-01-17T02:04:36.501Z,3.37
2018-01-17T02:07:04.070Z,2.42
2018-01-17T02:09:31.655Z,4.65
2018-01-17T02:12:00.000Z,7.53
2018-01-17T02:14:27.558Z,3.90
2018-01-17T02:16:55.118Z,6.53
2018-01-17T02:19:22.736Z,4.07
2018-01-17T02:21:50.284Z,3.05
2018-01-17T02:24:18.849Z,3.25
2018-01-17T02:26:46.526Z,6.53
2018-01-17T02:29:14.870Z,5.43
2018-01-17T02:31:42.424Z,3.03
2018-01-17T02:34:10.008Z,3.53
2018-01-17T02:36:37.626Z,4.97
2018-01-17T02:39:05.916Z,7.40
2018-01-17T02:41:33.472Z,6.20
2018-01-17T02:44:01.050Z,4.10
2018-01-17T02:46:28.619Z,4.85
2018-01-17T02:48:56.160Z,7.30
2018-01-17T02:51:23.794Z,5.53
2018-01-17T02:53:51.329Z,3.95
2018-01-17T02:56:18.883Z,7.97
2018-01-17T02:58:46.602Z,6.95
2018-01-17T03:01:14.160Z,3.95
2018-01-17T03:03:41.695Z,5.72
2018-01-17T03:06:10.037Z,7.93
2018-01-17T03:08:37.597Z,6.65
2018-01-17T03:11:05.325Z,4.40
2018-01-17T03:13:32.905Z,9.73
2018-01-17T03:16:00.489Z,3.15
2018-01-17T03:18:28.045Z,8.13
2018-01-17T03:20:55.633Z,6.57
2018-01-17T03:23:23.965Z,4.47
2018-01-17T03:25:51.658Z,6.93
2018-01-17T03:28:19.201Z,6.05
2018-01-17T03:30:46.876Z,3.53
2018-01-17T03:33:14.629Z,5.15
2018-01-17T03:35:42.180Z,5.05
2018-01-17T03:38:09.752Z,4.85
2018-01-17T03:40:37.339Z,7.35
2018-01-17T03:43:04.891Z,12.10
2018-01-17T03:45:32.450Z,8.30
2018-01-17T03:48:00.028Z,8.30
2018-01-17T03:50:27.646Z,5.72
2018-01-17T03:52:55.370Z,9.48
2018-01-17T03:55:23.702Z,6.07
2018-01-17T03:57:51.269Z,14.30
2018-01-17T04:00:18.875Z,7.82
2018-01-17T04:02:47.187Z,4.20
2018-01-17T04:05:14.750Z,11.63
2018-01-17T04:07:42.385Z,4.47
2018-01-17T04:10:09.950Z,12.40
2018-01-17T04:12:37.501Z,5.70
2018-01-17T04:15:05.828Z,9.20
2018-01-17T04:17:33.370Z,6.70
2018-01-17T04:20:01.106Z,4.00
2018-01-17T04:22:29.426Z,6.07
2018-01-17T04:24:56.961Z,1.55
2018-01-17T04:27:24.517Z,3.35
2018-01-17T04:29:52.083Z,1.37
2018-01-17T04:32:19.693Z,2.30
2018-01-17T04:34:47.441Z,1.20
2018-01-17T04:37:15.009Z,2.45
2018-01-17T04:39:42.559Z,4.55
2018-01-17T04:42:10.110Z,2.05
2018-01-17T04:44:37.674Z,5.35
2018-01-17T04:47:05.256Z,2.28
2018-01-17T04:49:32.815Z,1.30
2018-01-17T04:52:00.386Z,2.75
2018-01-17T04:54:27.936Z,2.90
2018-01-17T04:56:55.511Z,1.40
2018-01-17T04:59:23.089Z,2.20
2018-01-17T05:01:51.771Z,4.53
2018-01-17T05:04:21.913Z,1.42
2018-01-17T05:06:50.253Z,4.15
2018-01-17T05:09:18.022Z,1.35
2018-01-17T05:11:45.560Z,3.53
2018-01-17T05:14:13.118Z,1.02
2018-01-17T05:16:40.673Z,0.90
2018-01-17T05:19:08.390Z,1.12
2018-01-17T05:21:36.742Z,0.93
2018-01-17T05:24:04.535Z,1.25
2018-01-17T05:26:32.160Z,1.00
2018-01-17T05:28:59.756Z,4.53
2018-01-17T05:31:28.145Z,1.33
2018-01-17T05:33:56.972Z,1.75
2018-01-17T05:36:24.571Z,1.65
2018-01-17T05:38:52.112Z,2.58
2018-01-17T05:41:19.733Z,3.17
2018-01-17T05:43:47.281Z,3.53
2018-01-17T05:46:15.661Z,6.18
2018-01-17T05:48:43.985Z,2.55
2018-01-17T05:51:11.585Z,2.47
2018-01-17T05:53:39.145Z,3.90
2018-01-17T05:56:06.719Z,3.92
2018-01-17T05:58:35.277Z,2.75
2018-01-17T06:01:02.842Z,2.15
2018-01-17T06:03:30.412Z,3.75
2018-01-17T06:05:57.950Z,2.85
2018-01-17T06:08:25.545Z,3.10
2018-01-17T06:10:53.149Z,4.72
2018-01-17T06:13:20.722Z,4.43
2018-01-17T06:15:48.262Z,9.20
2018-01-17T06:18:15.830Z,2.55
2018-01-17T06:20:43.409Z,7.68
2018-01-17T06:23:10.949Z,2.47
2018-01-17T06:25:38.498Z,5.45
2018-01-17T06:28:06.054Z,4.82
2018-01-17T06:30:33.649Z,4.80
2018-01-17T06:33:01.206Z,1.95
2018-01-17T06:35:28.797Z,4.62
2018-01-17T06:37:56.349Z,5.25
2018-01-17T06:40:23.927Z,2.37
2018-01-17T06:42:51.461Z,6.22
2018-01-17T06:45:19.056Z,7.22
2018-01-17T06:47:57.669Z,4.95
2018-01-17T06:50:25.204Z,6.43
2018-01-17T06:52:52.760Z,9.82
2018-01-17T06:55:20.305Z,6.12
2018-01-17T06:57:47.841Z,8.75
2018-01-17T07:00:15.417Z,15.73
2018-01-17T07:02:43.029Z,10.98
2018-01-17T07:05:11.577Z,7.40
2018-01-17T07:07:39.155Z,10.90
2018-01-17T07:10:06.699Z,9.32
2018-01-17T07:12:34.246Z,10.57
2018-01-17T07:15:02.037Z,12.98
2018-01-17T07:17:29.600Z,8.13
2018-01-17T07:19:57.171Z,8.57
2018-01-17T07:22:24.726Z,20.48
2018-01-17T07:24:52.560Z,5.62
2018-01-17T07:27:20.117Z,4.93
2018-01-17T07:29:47.770Z,3.45
2018-01-17T07:32:15.348Z,5.25
2018-01-17T07:34:42.925Z,3.75
2018-01-17T07:37:10.471Z,4.50
2018-01-17T07:39:37.996Z,3.95
2018-01-17T07:42:07.261Z,3.45
2018-01-17T07:44:34.818Z,2.97
2018-01-17T07:47:02.441Z,3.75
2018-01-17T07:49:29.994Z,6.47
2018-01-17T07:51:57.540Z,3.83
2018-01-17T07:54:25.865Z,2.40
2018-01-17T07:56:53.975Z,3.83
2018-01-17T07:59:21.550Z,2.20
2018-01-17T08:01:49.857Z,11.90
2018-01-17T08:04:17.425Z,6.37
2018-01-17T08:06:45.000Z,5.57
2018-01-17T08:09:12.643Z,5.45
2018-01-17T08:11:40.187Z,5.87
2018-01-17T08:14:08.693Z,8.10
2018-01-17T08:16:36.263Z,6.53
2018-01-17T08:19:04.094Z,8.30
2018-01-17T08:21:32.433Z,13.07
2018-01-17T08:23:59.981Z,13.88
2018-01-17T08:26:27.572Z,14.43
2018-01-17T08:28:55.134Z,15.05
2018-01-17T08:31:22.896Z,10.63
2018-01-17T08:33:50.432Z,12.82
2018-01-17T08:36:18.040Z,13.88
2018-01-17T08:38:45.653Z,12.20
2018-01-17T08:41:13.218Z,11.18
2018-01-17T08:43:40.805Z,9.95
2018-01-17T08:46:08.367Z,12.68
2018-01-17T08:48:35.995Z,13.68
2018-01-17T08:51:03.566Z,8.52
2018-01-17T08:53:31.138Z,9.15
2018-01-17T08:55:58.721Z,6.07
2018-01-17T08:58:27.065Z,8.63
2018-01-17T09:00:54.628Z,8.18
2018-01-17T09:03:22.185Z,9.85
2018-01-17T09:05:49.792Z,5.12
2018-01-17T09:08:18.369Z,9.82
2018-01-17T09:10:46.707Z,9.35
2018-01-17T09:13:14.288Z,6.95
2018-01-17T09:15:41.836Z,6.45
2018-01-17T09:18:09.396Z,13.23
2018-01-17T09:20:37.065Z,7.68
2018-01-17T09:23:04.613Z,11.70
2018-01-17T09:25:32.177Z,7.65
2018-01-17T09:27:59.809Z,8.50
2018-01-17T09:30:27.349Z,12.73
2018-01-17T09:32:55.025Z,10.45
2018-01-17T09:35:22.599Z,7.05
2018-01-17T09:37:50.242Z,7.15
2018-01-17T09:40:18.770Z,15.10
2018-01-17T09:42:46.342Z,10.48
2018-01-17T09:45:13.893Z,7.95
2018-01-17T09:47:41.445Z,17.20
2018-01-17T09:50:08.993Z,7.40
2018-01-17T09:52:36.578Z,6.47
2018-01-17T09:55:04.156Z,13.27
2018-01-17T09:57:32.532Z,14.18
2018-01-17T10:00:00.145Z,10.80
2018-01-17T10:02:27.758Z,9.82
2018-01-17T10:04:56.248Z,6.80
2018-01-17T10:07:23.916Z,11.45
2018-01-17T10:09:52.248Z,7.62
2018-01-17T10:12:19.982Z,8.45
2018-01-17T10:14:48.313Z,6.53
2018-01-17T10:17:15.877Z,6.53
2018-01-17T10:19:43.446Z,7.97
2018-01-17T10:22:11.011Z,9.98
2018-01-17T10:24:38.557Z,10.30
2018-01-17T10:27:06.188Z,6.82
2018-01-17T10:29:33.793Z,8.93
2018-01-17T10:32:01.345Z,9.10
2018-01-17T10:34:28.899Z,8.40
2018-01-17T10:36:56.606Z,8.65
2018-01-17T10:39:24.912Z,10.98
2018-01-17T10:41:52.628Z,4.97
2018-01-17T10:44:20.193Z,5.82
2018-01-17T10:46:48.729Z,5.47
2018-01-17T10:49:16.281Z,10.65
2018-01-17T10:51:43.857Z,12.68
2018-01-17T10:54:11.428Z,10.00
2018-01-17T10:56:39.016Z,7.70
2018-01-17T10:59:06.725Z,10.98
2018-01-17T11:01:34.325Z,11.73
2018-01-17T11:04:01.878Z,8.85
2018-01-17T11:06:29.496Z,9.85
2018-01-17T11:08:57.892Z,14.32
2018-01-17T11:11:25.494Z,13.35
2018-01-17T11:13:53.068Z,7.87
2018-01-17T11:16:20.653Z,10.00
2018-01-17T11:18:48.957Z,10.77
2018-01-17T11:21:16.504Z,11.00
2018-01-17T11:23:44.089Z,9.68
2018-01-17T11:26:11.653Z,5.32
2018-01-17T11:28:39.241Z,6.85
2018-01-17T11:31:06.788Z,9.65
2018-01-17T11:33:34.470Z,7.87
2018-01-17T11:36:02.073Z,6.32
2018-01-17T11:38:29.644Z,7.53
2018-01-17T11:40:57.219Z,10.30
2018-01-17T11:43:24.785Z,12.98
2018-01-17T11:45:52.337Z,6.32
2018-01-17T11:48:19.978Z,4.57
2018-01-17T11:50:48.286Z,7.40
2018-01-17T11:53:15.870Z,10.55
2018-01-17T11:55:43.448Z,6.05
2018-01-17T11:58:11.056Z,11.18
2018-01-17T12:00:38.616Z,9.88
2018-01-17T12:03:06.258Z,9.85
2018-01-17T12:05:33.836Z,5.85
2018-01-17T12:08:01.426Z,6.75
2018-01-17T12:10:28.973Z,8.05
2018-01-17T12:12:56.566Z,7.50
2018-01-17T12:15:24.117Z,5.87
2018-01-17T12:17:52.468Z,7.47
2018-01-17T12:20:20.014Z,10.10
2018-01-17T12:22:47.561Z,5.78
2018-01-17T12:25:15.902Z,6.55
2018-01-17T12:27:43.533Z,9.48
2018-01-17T12:30:11.195Z,7.10
2018-01-17T12:32:38.732Z,6.18
2018-01-17T12:35:06.308Z,8.10
2018-01-17T12:37:33.878Z,10.77
2018-01-17T12:40:01.673Z,7.70
2018-01-17T12:42:29.332Z,7.30
2018-01-17T12:44:56.958Z,7.65
2018-01-17T12:47:24.512Z,10.45
2018-01-17T12:49:52.117Z,9.98
2018-01-17T12:52:20.570Z,11.07
2018-01-17T12:54:48.137Z,6.35
2018-01-17T12:57:15.747Z,6.85
2018-01-17T12:59:43.421Z,11.88
2018-01-17T13:02:11.892Z,11.90
2018-01-17T13:04:40.225Z,10.48
2018-01-17T13:07:07.782Z,27.02
2018-01-17T13:09:35.649Z,9.70
2018-01-17T13:12:03.214Z,16.25
2018-01-17T13:14:48.659Z,12.70
2018-01-17T13:17:16.993Z,18.45
2018-01-17T13:19:44.540Z,12.52
2018-01-17T13:22:12.109Z,12.68
2018-01-17T13:24:39.678Z,11.63
2018-01-17T13:27:07.240Z,14.07
2018-01-17T13:29:34.787Z,11.98
2018-01-17T13:32:02.487Z,14.13
2018-01-17T13:34:30.235Z,14.05
2018-01-17T13:36:57.809Z,19.98
2018-01-17T13:39:26.121Z,11.65
2018-01-17T13:41:53.679Z,11.40
2018-01-17T13:44:21.372Z,9.05
2018-01-17T13:46:48.917Z,12.82
2018-01-17T13:49:16.570Z,10.75
2018-01-17T13:51:44.133Z,11.95
2018-01-17T13:54:12.465Z,9.15
2018-01-17T13:56:40.033Z,11.77
2018-01-17T13:59:07.669Z,10.00
2018-01-17T14:01:35.273Z,15.85
2018-01-17T14:04:02.834Z,9.18
2018-01-17T14:06:30.381Z,14.40
2018-01-17T14:08:57.941Z,14.75
2018-01-17T14:11:25.496Z,11.55
2018-01-17T14:13:53.095Z,10.10
2018-01-17T14:16:21.431Z,11.48
2018-01-17T14:18:48.973Z,20.42
2018-01-17T14:21:17.104Z,14.38
2018-01-17T14:23:45.465Z,9.63
2018-01-17T14:26:13.075Z,13.98
2018-01-17T14:28:40.649Z,12.63
2018-01-17T14:31:08.205Z,8.48
2018-01-17T14:33:35.777Z,10.93
2018-01-17T14:36:03.349Z,12.75
2018-01-17T14:38:30.930Z,16.58
2018-01-17T14:40:58.505Z,16.98
2018-01-17T14:43:26.094Z,6.68
2018-01-17T14:45:53.671Z,12.48
2018-01-17T14:48:21.258Z,9.68
2018-01-17T14:50:48.816Z,11.65
2018-01-17T14:53:16.369Z,19.37
2018-01-17T14:55:44.046Z,12.40
2018-01-17T14:58:11.672Z,8.18
2018-01-17T15:00:40.006Z,10.77
2018-01-17T15:03:07.656Z,14.98
2018-01-17T15:05:35.223Z,17.08
2018-01-17T15:08:02.790Z,11.52
2018-01-17T15:10:30.352Z,7.72
2018-01-17T15:12:58.020Z,10.63
2018-01-17T15:15:25.598Z,9.27
2018-01-17T15:17:53.147Z,12.43
2018-01-17T15:20:20.697Z,19.62
2018-01-17T15:22:48.327Z,13.32
2018-01-17T15:25:15.957Z,15.32
2018-01-17T15:27:44.321Z,18.83
2018-01-17T15:30:11.873Z,9.90
2018-01-17T15:32:39.493Z,12.00
2018-01-17T15:35:07.353Z,12.70
2018-01-17T15:37:34.976Z,14.95
2018-01-17T15:40:02.580Z,15.48
2018-01-17T15:42:30.815Z,25.08
2018-01-17T15:44:59.147Z,17.55
2018-01-17T15:47:26.772Z,11.30
2018-01-17T15:49:55.139Z,12.25
2018-01-17T15:52:23.505Z,17.77
2018-01-17T15:54:51.049Z,11.90
2018-01-17T15:57:18.653Z,14.45
2018-01-17T15:59:46.985Z,12.60
2018-01-17T16:02:14.602Z,14.15
2018-01-17T16:04:42.182Z,17.48
2018-01-17T16:07:11.313Z,12.05
2018-01-17T16:09:38.877Z,14.48
2018-01-17T16:12:06.470Z,11.57
2018-01-17T16:14:34.815Z,11.07
2018-01-17T16:17:03.174Z,17.73
2018-01-17T16:19:30.708Z,13.23
2018-01-17T16:21:58.253Z,21.50
2018-01-17T16:24:26.577Z,22.27
2018-01-17T16:26:54.206Z,21.27
2018-01-17T16:29:22.609Z,21.85
2018-01-17T16:31:50.171Z,20.52
2018-01-17T16:34:17.735Z,10.70
2018-01-17T16:36:45.292Z,27.15
2018-01-17T16:39:12.886Z,19.37
2018-01-17T16:41:40.473Z,11.75
2018-01-17T16:44:08.823Z,14.77
2018-01-17T16:46:36.444Z,13.32
2018-01-17T16:49:04.733Z,14.20
2018-01-17T16:51:32.456Z,10.60
2018-01-17T16:54:00.022Z,9.30
2018-01-17T16:56:28.396Z,9.43
2018-01-17T16:58:56.712Z,11.10
2018-01-17T17:01:24.258Z,6.85
2018-01-17T17:03:52.598Z,9.23
2018-01-17T17:06:21.068Z,9.25
2018-01-17T17:08:48.756Z,17.98
2018-01-17T17:11:16.543Z,14.23
2018-01-17T17:13:44.895Z,13.62
2018-01-17T17:16:12.474Z,14.07
2018-01-17T17:18:40.886Z,14.48
2018-01-17T17:21:08.463Z,12.63
2018-01-17T17:23:36.141Z,12.27
2018-01-17T17:26:03.831Z,9.25
2018-01-17T17:28:31.551Z,12.57
2018-01-17T17:30:59.310Z,14.05
2018-01-17T17:33:26.913Z,10.88
2018-01-17T17:35:54.520Z,18.90
2018-01-17T17:38:22.985Z,6.37
2018-01-17T17:40:51.034Z,13.20
2018-01-17T17:43:18.628Z,11.77
2018-01-17T17:45:46.953Z,12.93
2018-01-17T17:48:14.522Z,12.70
2018-01-17T17:50:42.112Z,8.93
2018-01-17T17:53:09.719Z,16.05
2018-01-17T17:55:37.290Z,18.67
2018-01-17T17:58:04.871Z,18.02
2018-01-17T18:00:32.618Z,9.48
2018-01-17T18:03:00.228Z,20.83
2018-01-17T18:05:27.838Z,12.27
2018-01-17T18:07:55.403Z,8.88
2018-01-17T18:10:22.970Z,17.20
2018-01-17T18:12:50.544Z,13.90
2018-01-17T18:15:18.113Z,14.45
2018-01-17T18:17:46.477Z,9.57
2018-01-17T18:20:14.025Z,17.08
2018-01-17T18:22:41.618Z,9.52
2018-01-17T18:25:09.430Z,10.43
2018-01-17T18:27:37.812Z,9.52
2018-01-17T18:30:06.208Z,12.77
2018-01-17T18:32:33.845Z,9.88
2018-01-17T18:35:02.179Z,11.48
2018-01-17T18:37:29.749Z,7.10
2018-01-17T18:39:57.319Z,18.62
2018-01-17T18:42:24.897Z,13.55
2018-01-17T18:44:53.264Z,8.50
2018-01-17T18:47:20.881Z,14.32
2018-01-17T18:49:48.456Z,10.25
2018-01-17T18:52:16.041Z,16.37
2018-01-17T18:54:44.441Z,13.43
2018-01-17T18:57:12.820Z,10.90
2018-01-17T18:59:41.161Z,14.40
2018-01-17T19:02:08.764Z,12.88
2018-01-17T19:04:36.321Z,13.52
2018-01-17T19:07:04.734Z,10.30
2018-01-17T19:09:32.405Z,7.10
2018-01-17T19:12:00.800Z,10.40
2018-01-17T19:14:28.362Z,13.75
2018-01-17T19:16:55.920Z,8.13
2018-01-17T19:19:23.529Z,12.95
2018-01-17T19:21:51.080Z,13.82
2018-01-17T19:24:18.634Z,22.62
2018-01-17T19:26:46.214Z,9.68
2018-01-17T19:29:13.876Z,14.18
2018-01-17T19:31:42.210Z,13.90
2018-01-17T19:34:10.650Z,12.27
2018-01-17T19:36:38.976Z,10.68
2018-01-17T19:39:06.580Z,12.32
2018-01-17T19:41:34.969Z,18.92
2018-01-17T19:44:03.390Z,17.75
2018-01-17T19:46:31.049Z,13.02
2018-01-17T19:48:58.646Z,16.62
2018-01-17T19:51:26.202Z,9.30
2018-01-17T19:53:53.803Z,14.80
2018-01-17T19:56:22.330Z,16.20
2018-01-17T19:58:49.914Z,11.38
2018-01-17T20:01:17.595Z,21.10
2018-01-17T20:03:45.406Z,14.43
2018-01-17T20:06:12.962Z,18.00
2018-01-17T20:08:40.540Z,24.75
2018-01-17T20:11:08.191Z,16.00
2018-01-17T20:13:35.990Z,11.40
2018-01-17T20:16:03.582Z,16.65
2018-01-17T20:18:31.158Z,14.48
2018-01-17T20:20:59.546Z,17.37
2018-01-17T20:23:27.124Z,16.33
2018-01-17T20:25:54.763Z,14.98
2018-01-17T20:28:23.217Z,14.15
2018-01-17T20:30:50.786Z,19.05
2018-01-17T20:33:18.340Z,19.48
2018-01-17T20:35:46.933Z,27.48
2018-01-17T20:38:14.512Z,21.23
2018-01-17T20:40:42.847Z,18.37
2018-01-17T20:43:10.482Z,22.27
2018-01-17T20:45:38.029Z,14.75
2018-01-17T20:48:05.619Z,20.83
2018-01-17T20:50:33.400Z,16.05
2018-01-17T20:53:01.092Z,15.95
2018-01-17T20:55:28.698Z,19.65
2018-01-17T20:57:56.346Z,21.00
2018-01-17T21:00:24.061Z,16.55
2018-01-17T21:02:51.623Z,17.75
2018-01-17T21:05:19.194Z,14.10
2018-01-17T21:07:46.768Z,18.75
2018-01-17T21:10:14.378Z,19.42
2018-01-17T21:12:41.959Z,11.52
2018-01-17T21:15:09.545Z,24.75
2018-01-17T21:17:37.130Z,30.75
2018-01-17T21:20:05.434Z,26.55
2018-01-17T21:22:33.048Z,20.85
2018-01-17T21:25:00.604Z,18.08
2018-01-17T21:27:28.207Z,19.00
2018-01-17T21:29:56.530Z,24.50
2018-01-17T21:32:24.099Z,24.10
2018-01-17T21:34:51.694Z,16.20
2018-01-17T21:37:20.004Z,24.45
2018-01-17T21:39:47.591Z,19.95
2018-01-17T21:42:20.785Z,21.02
2018-01-17T21:44:54.033Z,21.95
2018-01-17T21:47:22.350Z,21.90
2018-01-17T21:49:49.932Z,16.58
2018-01-17T21:52:17.515Z,24.10
2018-01-17T21:54:45.862Z,17.37
2018-01-17T21:57:13.439Z,16.60
2018-01-17T21:59:41.174Z,22.77
2018-01-17T22:02:08.721Z,17.80
2018-01-17T22:04:36.393Z,20.67
2018-01-17T22:07:03.996Z,13.77
2018-01-17T22:09:31.566Z,11.38
2018-01-17T22:11:59.134Z,22.48
2018-01-17T22:14:27.459Z,24.12
2018-01-17T22:16:55.009Z,17.60
2018-01-17T22:19:22.606Z,21.37
2018-01-17T22:21:50.201Z,12.95
2018-01-17T22:24:18.546Z,19.98
2018-01-17T22:26:46.105Z,12.70
2018-01-17T22:29:13.710Z,17.23
2018-01-17T22:31:42.131Z,22.58
2018-01-17T22:34:09.696Z,21.58
2018-01-17T22:36:37.245Z,19.50
2018-01-17T22:39:04.813Z,17.45
2018-01-17T22:41:32.374Z,24.90
2018-01-17T22:43:59.970Z,18.23
2018-01-17T22:46:27.539Z,15.15
2018-01-17T22:48:55.113Z,16.35
2018-01-17T22:51:23.462Z,24.75
2018-01-17T22:53:51.014Z,11.05
2018-01-17T22:56:18.598Z,12.23
2018-01-17T22:58:46.949Z,14.93
2018-01-17T23:01:14.546Z,11.12
2018-01-17T23:03:43.066Z,23.62
2018-01-17T23:06:10.618Z,14.30
2018-01-17T23:08:38.190Z,13.80
2018-01-17T23:11:05.740Z,15.05
2018-01-17T23:13:33.305Z,8.85
2018-01-17T23:16:00.866Z,9.63
2018-01-17T23:18:28.597Z,17.35
2018-01-17T23:20:57.010Z,10.02
2018-01-17T23:23:24.633Z,25.88
2018-01-17T23:25:52.260Z,14.38
2018-01-17T23:28:19.810Z,15.13
2018-01-17T23:30:47.390Z,16.45
2018-01-17T23:33:14.955Z,16.60
2018-01-17T23:35:42.584Z,18.12
2018-01-17T23:38:10.921Z,19.20
2018-01-17T23:40:38.634Z,14.45
2018-01-17T23:43:06.194Z,14.52
2018-01-17T23:45:34.256Z,13.48
2018-01-17T23:48:01.870Z,15.30
2018-01-17T23:50:29.445Z,13.80
2018-01-17T23:52:57.105Z,9.02
2018-01-17T23:55:24.689Z,14.38
2018-01-17T23:57:52.237Z,23.80
